sensor_id;sensor_type;location;lat;lon;timestamp;temperature;humidity
36594;DHT22;22603;47.900;8.146;2024-02-16T00:00:53;5.50;99.90
36594;DHT22;22603;47.900;8.146;2024-02-16T00:03:42;5.40;99.90
36594;DHT22;22603;47.900;8.146;2024-02-16T00:06:28;5.30;99.90
36594;DHT22;22603;47.900;8.146;2024-02-16T00:09:16;5.30;99.90
36594;DHT22;22603;47.900;8.146;2024-02-16T00:12:04;5.40;99.90
36594;DHT22;22603;47.900;8.146;2024-02-16T00:14:51;5.40;99.90
36594;DHT22;22603;47.900;8.146;2024-02-16T00:17:38;5.50;99.90
36594;DHT22;22603;47.900;8.146;2024-02-16T00:20:26;5.50;99.90
36594;DHT22;22603;47.900;8.146;2024-02-16T00:23:13;5.60;99.90
36594;DHT22;22603;47.900;8.146;2024-02-16T00:26:02;5.60;99.90
36594;DHT22;22603;47.900;8.146;2024-02-16T00:28:52;5.60;99.90
36594;DHT22;22603;47.900;8.146;2024-02-16T00:31:39;5.60;99.90
36594;DHT22;22603;47.900;8.146;2024-02-16T00:34:26;5.70;99.90
36594;DHT22;22603;47.900;8.146;2024-02-16T00:37:15;5.50;99.90
36594;DHT22;22603;47.900;8.146;2024-02-16T00:40:02;5.60;99.90
36594;DHT22;22603;47.900;8.146;2024-02-16T00:42:49;5.60;99.90
36594;DHT22;22603;47.900;8.146;2024-02-16T00:45:37;5.60;99.90
36594;DHT22;22603;47.900;8.146;2024-02-16T00:48:24;5.50;99.90
36594;DHT22;22603;47.900;8.146;2024-02-16T00:51:11;5.50;99.90
36594;DHT22;22603;47.900;8.146;2024-02-16T00:54:00;5.50;99.90
36594;DHT22;22603;47.900;8.146;2024-02-16T00:56:48;5.50;99.90
36594;DHT22;22603;47.900;8.146;2024-02-16T00:59:35;5.50;99.90
36594;DHT22;22603;47.900;8.146;2024-02-16T01:02:22;5.50;99.90
36594;DHT22;22603;47.900;8.146;2024-02-16T01:05:14;5.50;99.90
36594;DHT22;22603;47.900;8.146;2024-02-16T01:08:03;5.40;99.90
36594;DHT22;22603;47.900;8.146;2024-02-16T01:10:52;5.40;99.90
36594;DHT22;22603;47.900;8.146;2024-02-16T01:13:39;5.40;99.90
36594;DHT22;22603;47.900;8.146;2024-02-16T01:16:26;5.40;99.90
36594;DHT22;22603;47.900;8.146;2024-02-16T01:19:13;5.30;99.90
36594;DHT22;22603;47.900;8.146;2024-02-16T01:21:59;5.30;99.90
36594;DHT22;22603;47.900;8.146;2024-02-16T01:24:46;5.30;99.90
36594;DHT22;22603;47.900;8.146;2024-02-16T01:27:34;5.20;99.90
36594;DHT22;22603;47.900;8.146;2024-02-16T01:30:22;5.20;99.90
36594;DHT22;22603;47.900;8.146;2024-02-16T01:33:09;5.20;99.90
36594;DHT22;22603;47.900;8.146;2024-02-16T01:35:56;5.20;99.90
36594;DHT22;22603;47.900;8.146;2024-02-16T01:38:42;5.20;99.90
36594;DHT22;22603;47.900;8.146;2024-02-16T01:41:29;5.10;99.90
36594;DHT22;22603;47.900;8.146;2024-02-16T01:44:17;5.10;99.90
36594;DHT22;22603;47.900;8.146;2024-02-16T01:47:04;5.10;99.90
36594;DHT22;22603;47.900;8.146;2024-02-16T01:49:51;5.20;99.90
36594;DHT22;22603;47.900;8.146;2024-02-16T01:52:38;5.20;99.90
36594;DHT22;22603;47.900;8.146;2024-02-16T01:55:26;5.20;99.90
36594;DHT22;22603;47.900;8.146;2024-02-16T01:58:13;5.20;99.90
36594;DHT22;22603;47.900;8.146;2024-02-16T02:01:01;5.20;99.90
36594;DHT22;22603;47.900;8.146;2024-02-16T02:03:48;5.20;99.90
36594;DHT22;22603;47.900;8.146;2024-02-16T02:06:37;5.20;99.90
36594;DHT22;22603;47.900;8.146;2024-02-16T02:09:24;5.30;99.90
36594;DHT22;22603;47.900;8.146;2024-02-16T02:12:10;5.20;99.90
36594;DHT22;22603;47.900;8.146;2024-02-16T02:14:57;5.20;99.90
36594;DHT22;22603;47.900;8.146;2024-02-16T02:17:45;5.30;99.90
36594;DHT22;22603;47.900;8.146;2024-02-16T02:20:32;5.30;99.90
36594;DHT22;22603;47.900;8.146;2024-02-16T02:23:22;5.30;99.90
36594;DHT22;22603;47.900;8.146;2024-02-16T02:26:09;5.30;99.90
36594;DHT22;22603;47.900;8.146;2024-02-16T02:28:56;5.30;99.90
36594;DHT22;22603;47.900;8.146;2024-02-16T02:31:42;5.30;99.90
36594;DHT22;22603;47.900;8.146;2024-02-16T02:34:29;5.40;99.90
36594;DHT22;22603;47.900;8.146;2024-02-16T02:37:16;5.40;99.90
36594;DHT22;22603;47.900;8.146;2024-02-16T02:40:06;5.40;99.90
36594;DHT22;22603;47.900;8.146;2024-02-16T02:42:53;5.40;99.90
36594;DHT22;22603;47.900;8.146;2024-02-16T02:45:40;5.30;99.90
36594;DHT22;22603;47.900;8.146;2024-02-16T02:48:26;5.30;99.90
36594;DHT22;22603;47.900;8.146;2024-02-16T02:51:13;5.20;99.90
36594;DHT22;22603;47.900;8.146;2024-02-16T02:54:00;5.20;99.90
36594;DHT22;22603;47.900;8.146;2024-02-16T02:56:49;5.10;99.90
36594;DHT22;22603;47.900;8.146;2024-02-16T02:59:36;5.20;99.90
36594;DHT22;22603;47.900;8.146;2024-02-16T03:02:23;5.10;99.90
36594;DHT22;22603;47.900;8.146;2024-02-16T03:05:11;5.10;99.90
36594;DHT22;22603;47.900;8.146;2024-02-16T03:07:57;5.10;99.90
36594;DHT22;22603;47.900;8.146;2024-02-16T03:10:46;5.00;99.90
36594;DHT22;22603;47.900;8.146;2024-02-16T03:13:34;5.10;99.90
36594;DHT22;22603;47.900;8.146;2024-02-16T03:16:21;5.10;99.90
36594;DHT22;22603;47.900;8.146;2024-02-16T03:19:08;5.10;99.90
36594;DHT22;22603;47.900;8.146;2024-02-16T03:21:55;5.00;99.90
36594;DHT22;22603;47.900;8.146;2024-02-16T03:24:43;5.00;99.90
36594;DHT22;22603;47.900;8.146;2024-02-16T03:27:30;5.10;99.90
36594;DHT22;22603;47.900;8.146;2024-02-16T03:30:18;5.10;99.90
36594;DHT22;22603;47.900;8.146;2024-02-16T03:33:05;5.10;99.90
36594;DHT22;22603;47.900;8.146;2024-02-16T03:35:52;5.10;99.90
36594;DHT22;22603;47.900;8.146;2024-02-16T03:38:41;5.20;99.90
36594;DHT22;22603;47.900;8.146;2024-02-16T03:41:27;5.10;99.90
36594;DHT22;22603;47.900;8.146;2024-02-16T03:44:15;5.20;99.90
36594;DHT22;22603;47.900;8.146;2024-02-16T03:47:04;5.20;99.90
36594;DHT22;22603;47.900;8.146;2024-02-16T03:49:51;5.20;99.90
36594;DHT22;22603;47.900;8.146;2024-02-16T03:52:38;5.20;99.90
36594;DHT22;22603;47.900;8.146;2024-02-16T03:55:24;5.20;99.90
36594;DHT22;22603;47.900;8.146;2024-02-16T03:58:11;5.20;99.90
36594;DHT22;22603;47.900;8.146;2024-02-16T04:00:57;5.20;99.90
36594;DHT22;22603;47.900;8.146;2024-02-16T04:03:45;5.20;99.90
36594;DHT22;22603;47.900;8.146;2024-02-16T04:06:32;5.20;99.90
36594;DHT22;22603;47.900;8.146;2024-02-16T04:09:19;5.10;99.90
36594;DHT22;22603;47.900;8.146;2024-02-16T04:12:07;5.00;99.90
36594;DHT22;22603;47.900;8.146;2024-02-16T04:14:54;5.00;99.90
36594;DHT22;22603;47.900;8.146;2024-02-16T04:17:41;5.00;99.90
36594;DHT22;22603;47.900;8.146;2024-02-16T04:20:29;4.90;99.90
36594;DHT22;22603;47.900;8.146;2024-02-16T04:23:15;4.90;99.90
36594;DHT22;22603;47.900;8.146;2024-02-16T04:26:03;4.80;99.90
36594;DHT22;22603;47.900;8.146;2024-02-16T04:28:52;4.80;99.90
36594;DHT22;22603;47.900;8.146;2024-02-16T04:31:39;4.80;99.90
36594;DHT22;22603;47.900;8.146;2024-02-16T04:34:27;4.80;99.90
36594;DHT22;22603;47.900;8.146;2024-02-16T04:37:16;4.80;99.90
36594;DHT22;22603;47.900;8.146;2024-02-16T04:40:05;4.80;99.90
36594;DHT22;22603;47.900;8.146;2024-02-16T04:42:52;4.80;99.90
36594;DHT22;22603;47.900;8.146;2024-02-16T04:45:39;4.80;99.90
36594;DHT22;22603;47.900;8.146;2024-02-16T04:48:26;4.80;99.90
36594;DHT22;22603;47.900;8.146;2024-02-16T04:51:13;4.80;99.90
36594;DHT22;22603;47.900;8.146;2024-02-16T04:54:02;4.90;99.90
36594;DHT22;22603;47.900;8.146;2024-02-16T04:56:49;4.90;99.90
36594;DHT22;22603;47.900;8.146;2024-02-16T04:59:36;4.90;99.90
36594;DHT22;22603;47.900;8.146;2024-02-16T05:02:23;5.00;99.90
36594;DHT22;22603;47.900;8.146;2024-02-16T05:05:09;5.00;99.90
36594;DHT22;22603;47.900;8.146;2024-02-16T05:07:56;4.90;99.90
36594;DHT22;22603;47.900;8.146;2024-02-16T05:10:45;5.00;99.90
36594;DHT22;22603;47.900;8.146;2024-02-16T05:13:32;5.00;99.90
36594;DHT22;22603;47.900;8.146;2024-02-16T05:16:18;5.00;99.90
36594;DHT22;22603;47.900;8.146;2024-02-16T05:19:05;5.10;99.90
36594;DHT22;22603;47.900;8.146;2024-02-16T05:21:52;5.10;99.90
36594;DHT22;22603;47.900;8.146;2024-02-16T05:24:38;5.10;99.90
36594;DHT22;22603;47.900;8.146;2024-02-16T05:27:27;5.10;99.90
36594;DHT22;22603;47.900;8.146;2024-02-16T05:30:14;5.10;99.90
36594;DHT22;22603;47.900;8.146;2024-02-16T05:33:02;5.20;99.90
36594;DHT22;22603;47.900;8.146;2024-02-16T05:35:49;5.20;99.90
36594;DHT22;22603;47.900;8.146;2024-02-16T05:38:40;5.20;99.90
36594;DHT22;22603;47.900;8.146;2024-02-16T05:41:28;5.20;99.90
36594;DHT22;22603;47.900;8.146;2024-02-16T05:44:17;5.20;99.90
36594;DHT22;22603;47.900;8.146;2024-02-16T05:47:04;5.10;99.90
36594;DHT22;22603;47.900;8.146;2024-02-16T05:49:51;5.10;99.90
36594;DHT22;22603;47.900;8.146;2024-02-16T05:52:38;5.10;99.90
36594;DHT22;22603;47.900;8.146;2024-02-16T05:55:25;5.20;99.90
36594;DHT22;22603;47.900;8.146;2024-02-16T05:58:11;5.20;99.90
36594;DHT22;22603;47.900;8.146;2024-02-16T06:01:00;5.10;99.90
36594;DHT22;22603;47.900;8.146;2024-02-16T06:03:47;5.20;99.90
36594;DHT22;22603;47.900;8.146;2024-02-16T06:06:35;5.20;99.90
36594;DHT22;22603;47.900;8.146;2024-02-16T06:09:22;5.20;99.90
36594;DHT22;22603;47.900;8.146;2024-02-16T06:12:09;5.20;99.90
36594;DHT22;22603;47.900;8.146;2024-02-16T06:14:58;5.20;99.90
36594;DHT22;22603;47.900;8.146;2024-02-16T06:17:48;5.20;99.90
36594;DHT22;22603;47.900;8.146;2024-02-16T06:20:35;5.20;99.90
36594;DHT22;22603;47.900;8.146;2024-02-16T06:23:22;5.20;99.90
36594;DHT22;22603;47.900;8.146;2024-02-16T06:26:09;5.20;99.90
36594;DHT22;22603;47.900;8.146;2024-02-16T06:28:56;5.20;99.90
36594;DHT22;22603;47.900;8.146;2024-02-16T06:31:43;5.20;99.90
36594;DHT22;22603;47.900;8.146;2024-02-16T06:34:31;5.20;99.90
36594;DHT22;22603;47.900;8.146;2024-02-16T06:37:19;5.20;99.90
36594;DHT22;22603;47.900;8.146;2024-02-16T06:40:06;5.30;99.90
36594;DHT22;22603;47.900;8.146;2024-02-16T06:42:55;5.30;99.90
36594;DHT22;22603;47.900;8.146;2024-02-16T06:45:42;5.30;99.90
36594;DHT22;22603;47.900;8.146;2024-02-16T06:48:29;5.30;99.90
36594;DHT22;22603;47.900;8.146;2024-02-16T06:51:17;5.30;99.90
36594;DHT22;22603;47.900;8.146;2024-02-16T06:54:05;5.30;99.90
36594;DHT22;22603;47.900;8.146;2024-02-16T06:56:53;5.30;99.90
36594;DHT22;22603;47.900;8.146;2024-02-16T06:59:40;5.30;99.90
36594;DHT22;22603;47.900;8.146;2024-02-16T07:02:27;5.30;99.90
36594;DHT22;22603;47.900;8.146;2024-02-16T07:05:13;5.30;99.90
36594;DHT22;22603;47.900;8.146;2024-02-16T07:08:02;5.40;99.90
36594;DHT22;22603;47.900;8.146;2024-02-16T07:10:51;5.40;99.90
36594;DHT22;22603;47.900;8.146;2024-02-16T07:13:39;5.30;99.90
36594;DHT22;22603;47.900;8.146;2024-02-16T07:16:25;5.40;99.90
36594;DHT22;22603;47.900;8.146;2024-02-16T07:19:12;5.50;99.90
36594;DHT22;22603;47.900;8.146;2024-02-16T07:21:59;5.50;99.90
36594;DHT22;22603;47.900;8.146;2024-02-16T07:24:47;5.60;99.90
36594;DHT22;22603;47.900;8.146;2024-02-16T07:27:34;5.70;99.90
36594;DHT22;22603;47.900;8.146;2024-02-16T07:30:21;5.80;99.90
36594;DHT22;22603;47.900;8.146;2024-02-16T07:33:21;5.70;99.90
36594;DHT22;22603;47.900;8.146;2024-02-16T07:36:09;5.60;99.90
36594;DHT22;22603;47.900;8.146;2024-02-16T07:38:56;5.70;99.90
36594;DHT22;22603;47.900;8.146;2024-02-16T07:41:44;5.80;99.90
36594;DHT22;22603;47.900;8.146;2024-02-16T07:44:31;5.90;99.90
36594;DHT22;22603;47.900;8.146;2024-02-16T07:47:18;5.90;99.90
36594;DHT22;22603;47.900;8.146;2024-02-16T07:50:06;6.10;99.90
36594;DHT22;22603;47.900;8.146;2024-02-16T07:52:52;6.20;99.90
36594;DHT22;22603;47.900;8.146;2024-02-16T07:55:39;6.30;99.90
36594;DHT22;22603;47.900;8.146;2024-02-16T07:58:27;6.40;99.90
36594;DHT22;22603;47.900;8.146;2024-02-16T08:01:14;6.30;99.90
36594;DHT22;22603;47.900;8.146;2024-02-16T08:04:01;6.50;99.90
36594;DHT22;22603;47.900;8.146;2024-02-16T08:06:51;6.50;99.90
36594;DHT22;22603;47.900;8.146;2024-02-16T08:09:38;6.50;99.90
36594;DHT22;22603;47.900;8.146;2024-02-16T08:12:25;6.70;99.90
36594;DHT22;22603;47.900;8.146;2024-02-16T08:15:15;6.90;99.90
36594;DHT22;22603;47.900;8.146;2024-02-16T08:18:08;7.00;99.90
36594;DHT22;22603;47.900;8.146;2024-02-16T08:20:57;7.20;99.90
36594;DHT22;22603;47.900;8.146;2024-02-16T08:23:44;7.20;99.90
36594;DHT22;22603;47.900;8.146;2024-02-16T08:26:31;7.40;99.90
36594;DHT22;22603;47.900;8.146;2024-02-16T08:29:17;7.50;99.90
36594;DHT22;22603;47.900;8.146;2024-02-16T08:32:07;7.60;99.90
36594;DHT22;22603;47.900;8.146;2024-02-16T08:34:54;7.80;99.90
36594;DHT22;22603;47.900;8.146;2024-02-16T08:37:41;8.00;99.90
36594;DHT22;22603;47.900;8.146;2024-02-16T08:40:28;8.10;99.90
36594;DHT22;22603;47.900;8.146;2024-02-16T08:43:14;8.30;99.90
36594;DHT22;22603;47.900;8.146;2024-02-16T08:46:01;8.60;99.90
36594;DHT22;22603;47.900;8.146;2024-02-16T08:48:49;8.80;99.90
36594;DHT22;22603;47.900;8.146;2024-02-16T08:51:36;9.00;99.90
36594;DHT22;22603;47.900;8.146;2024-02-16T08:54:23;9.70;99.90
36594;DHT22;22603;47.900;8.146;2024-02-16T08:57:11;10.30;99.90
36594;DHT22;22603;47.900;8.146;2024-02-16T08:59:58;10.90;99.90
36594;DHT22;22603;47.900;8.146;2024-02-16T09:02:45;11.50;99.90
36594;DHT22;22603;47.900;8.146;2024-02-16T09:05:34;12.00;99.90
36594;DHT22;22603;47.900;8.146;2024-02-16T09:08:20;12.10;99.90
36594;DHT22;22603;47.900;8.146;2024-02-16T09:11:07;12.30;99.90
36594;DHT22;22603;47.900;8.146;2024-02-16T09:13:54;12.80;99.90
36594;DHT22;22603;47.900;8.146;2024-02-16T09:16:40;13.50;99.90
36594;DHT22;22603;47.900;8.146;2024-02-16T09:19:27;14.00;99.90
36594;DHT22;22603;47.900;8.146;2024-02-16T09:22:15;14.90;99.90
36594;DHT22;22603;47.900;8.146;2024-02-16T09:25:02;15.20;99.90
36594;DHT22;22603;47.900;8.146;2024-02-16T09:27:49;16.30;99.90
36594;DHT22;22603;47.900;8.146;2024-02-16T09:30:36;16.70;99.90
36594;DHT22;22603;47.900;8.146;2024-02-16T09:33:23;17.10;99.90
36594;DHT22;22603;47.900;8.146;2024-02-16T09:36:12;17.50;99.90
36594;DHT22;22603;47.900;8.146;2024-02-16T09:39:00;18.50;99.90
36594;DHT22;22603;47.900;8.146;2024-02-16T09:41:50;18.60;99.90
36594;DHT22;22603;47.900;8.146;2024-02-16T09:44:39;18.60;99.90
36594;DHT22;22603;47.900;8.146;2024-02-16T09:47:26;18.70;99.90
36594;DHT22;22603;47.900;8.146;2024-02-16T09:50:16;19.70;99.90
36594;DHT22;22603;47.900;8.146;2024-02-16T09:53:04;20.50;99.90
36594;DHT22;22603;47.900;8.146;2024-02-16T09:55:53;21.40;99.90
36594;DHT22;22603;47.900;8.146;2024-02-16T09:58:40;21.50;99.90
36594;DHT22;22603;47.900;8.146;2024-02-16T10:01:28;22.50;99.90
36594;DHT22;22603;47.900;8.146;2024-02-16T10:04:15;22.40;99.90
36594;DHT22;22603;47.900;8.146;2024-02-16T10:07:02;22.60;99.90
36594;DHT22;22603;47.900;8.146;2024-02-16T10:09:54;22.70;99.90
36594;DHT22;22603;47.900;8.146;2024-02-16T10:12:42;23.20;99.90
36594;DHT22;22603;47.900;8.146;2024-02-16T10:15:30;23.10;99.90
36594;DHT22;22603;47.900;8.146;2024-02-16T10:18:16;23.00;99.90
36594;DHT22;22603;47.900;8.146;2024-02-16T10:21:08;23.30;99.90
36594;DHT22;22603;47.900;8.146;2024-02-16T10:24:00;23.70;99.90
36594;DHT22;22603;47.900;8.146;2024-02-16T10:26:47;22.80;99.90
36594;DHT22;22603;47.900;8.146;2024-02-16T10:29:39;22.50;99.90
36594;DHT22;22603;47.900;8.146;2024-02-16T10:32:33;22.50;99.90
36594;DHT22;22603;47.900;8.146;2024-02-16T10:35:21;22.70;99.90
36594;DHT22;22603;47.900;8.146;2024-02-16T10:38:08;22.20;99.90
36594;DHT22;22603;47.900;8.146;2024-02-16T10:40:57;21.60;99.90
36594;DHT22;22603;47.900;8.146;2024-02-16T10:43:48;21.60;99.90
36594;DHT22;22603;47.900;8.146;2024-02-16T10:46:36;20.90;99.90
36594;DHT22;22603;47.900;8.146;2024-02-16T10:49:24;20.60;99.90
36594;DHT22;22603;47.900;8.146;2024-02-16T10:52:11;20.70;99.90
36594;DHT22;22603;47.900;8.146;2024-02-16T10:55:00;21.00;99.90
36594;DHT22;22603;47.900;8.146;2024-02-16T10:57:50;21.50;99.90
36594;DHT22;22603;47.900;8.146;2024-02-16T11:00:48;21.90;99.90
36594;DHT22;22603;47.900;8.146;2024-02-16T11:03:38;21.70;99.90
36594;DHT22;22603;47.900;8.146;2024-02-16T11:06:25;21.70;99.90
36594;DHT22;22603;47.900;8.146;2024-02-16T11:09:25;22.40;99.90
36594;DHT22;22603;47.900;8.146;2024-02-16T11:12:13;21.60;99.90
36594;DHT22;22603;47.900;8.146;2024-02-16T11:15:01;21.00;99.90
36594;DHT22;22603;47.900;8.146;2024-02-16T11:17:48;19.80;99.90
36594;DHT22;22603;47.900;8.146;2024-02-16T11:20:39;19.60;99.90
36594;DHT22;22603;47.900;8.146;2024-02-16T11:23:28;19.30;99.90
36594;DHT22;22603;47.900;8.146;2024-02-16T11:26:17;19.20;99.90
36594;DHT22;22603;47.900;8.146;2024-02-16T11:29:04;19.10;99.90
36594;DHT22;22603;47.900;8.146;2024-02-16T11:31:50;18.70;99.90
36594;DHT22;22603;47.900;8.146;2024-02-16T11:34:37;18.70;99.90
36594;DHT22;22603;47.900;8.146;2024-02-16T11:37:26;18.80;99.90
36594;DHT22;22603;47.900;8.146;2024-02-16T11:40:13;18.60;99.90
36594;DHT22;22603;47.900;8.146;2024-02-16T11:43:00;18.40;99.90
36594;DHT22;22603;47.900;8.146;2024-02-16T11:45:47;18.20;99.90
36594;DHT22;22603;47.900;8.146;2024-02-16T11:48:35;18.00;99.90
36594;DHT22;22603;47.900;8.146;2024-02-16T11:51:22;17.80;99.90
36594;DHT22;22603;47.900;8.146;2024-02-16T11:54:10;17.50;99.90
36594;DHT22;22603;47.900;8.146;2024-02-16T11:56:58;17.40;99.90
36594;DHT22;22603;47.900;8.146;2024-02-16T11:59:45;17.20;99.90
36594;DHT22;22603;47.900;8.146;2024-02-16T12:02:34;17.10;99.90
36594;DHT22;22603;47.900;8.146;2024-02-16T12:05:21;17.20;99.90
36594;DHT22;22603;47.900;8.146;2024-02-16T12:08:08;17.30;99.90
36594;DHT22;22603;47.900;8.146;2024-02-16T12:10:56;17.50;99.90
36594;DHT22;22603;47.900;8.146;2024-02-16T12:13:42;17.50;99.90
36594;DHT22;22603;47.900;8.146;2024-02-16T12:16:29;17.50;99.90
36594;DHT22;22603;47.900;8.146;2024-02-16T12:19:17;17.30;99.90
36594;DHT22;22603;47.900;8.146;2024-02-16T12:22:06;17.20;99.90
36594;DHT22;22603;47.900;8.146;2024-02-16T12:24:52;16.90;99.90
36594;DHT22;22603;47.900;8.146;2024-02-16T12:27:41;16.60;99.90
36594;DHT22;22603;47.900;8.146;2024-02-16T12:30:27;16.40;99.90
36594;DHT22;22603;47.900;8.146;2024-02-16T12:33:15;16.10;99.90
36594;DHT22;22603;47.900;8.146;2024-02-16T12:36:02;16.00;99.90
36594;DHT22;22603;47.900;8.146;2024-02-16T12:38:49;15.90;99.90
36594;DHT22;22603;47.900;8.146;2024-02-16T12:41:36;15.70;99.90
36594;DHT22;22603;47.900;8.146;2024-02-16T12:44:25;15.60;99.90
36594;DHT22;22603;47.900;8.146;2024-02-16T12:47:12;15.50;99.90
36594;DHT22;22603;47.900;8.146;2024-02-16T12:50:01;15.40;99.90
36594;DHT22;22603;47.900;8.146;2024-02-16T12:52:47;15.30;99.90
36594;DHT22;22603;47.900;8.146;2024-02-16T12:55:46;15.20;99.90
36594;DHT22;22603;47.900;8.146;2024-02-16T12:58:33;15.10;99.90
36594;DHT22;22603;47.900;8.146;2024-02-16T13:01:21;15.10;99.90
36594;DHT22;22603;47.900;8.146;2024-02-16T13:04:11;15.20;99.90
36594;DHT22;22603;47.900;8.146;2024-02-16T13:06:58;15.20;99.90
36594;DHT22;22603;47.900;8.146;2024-02-16T13:09:45;15.20;99.90
36594;DHT22;22603;47.900;8.146;2024-02-16T13:12:31;15.10;99.90
36594;DHT22;22603;47.900;8.146;2024-02-16T13:15:19;15.10;99.90
36594;DHT22;22603;47.900;8.146;2024-02-16T13:18:15;15.20;99.90
36594;DHT22;22603;47.900;8.146;2024-02-16T13:21:02;15.30;99.90
36594;DHT22;22603;47.900;8.146;2024-02-16T13:23:50;15.40;99.90
36594;DHT22;22603;47.900;8.146;2024-02-16T13:26:37;15.60;99.90
36594;DHT22;22603;47.900;8.146;2024-02-16T13:29:24;15.60;99.90
36594;DHT22;22603;47.900;8.146;2024-02-16T13:32:11;15.50;99.90
36594;DHT22;22603;47.900;8.146;2024-02-16T13:34:58;15.30;99.90
36594;DHT22;22603;47.900;8.146;2024-02-16T13:37:45;15.00;99.90
36594;DHT22;22603;47.900;8.146;2024-02-16T13:40:32;15.00;99.90
36594;DHT22;22603;47.900;8.146;2024-02-16T13:43:21;15.00;99.90
36594;DHT22;22603;47.900;8.146;2024-02-16T13:46:07;15.00;99.90
36594;DHT22;22603;47.900;8.146;2024-02-16T13:48:54;15.10;99.90
36594;DHT22;22603;47.900;8.146;2024-02-16T13:51:43;15.00;99.90
36594;DHT22;22603;47.900;8.146;2024-02-16T13:54:31;14.90;99.90
36594;DHT22;22603;47.900;8.146;2024-02-16T13:57:17;14.80;99.90
36594;DHT22;22603;47.900;8.146;2024-02-16T14:00:06;14.70;99.90
36594;DHT22;22603;47.900;8.146;2024-02-16T14:02:56;14.70;99.90
36594;DHT22;22603;47.900;8.146;2024-02-16T14:05:44;14.60;99.90
36594;DHT22;22603;47.900;8.146;2024-02-16T14:08:34;14.60;99.90
36594;DHT22;22603;47.900;8.146;2024-02-16T14:11:21;14.60;99.90
36594;DHT22;22603;47.900;8.146;2024-02-16T14:14:08;14.60;99.90
36594;DHT22;22603;47.900;8.146;2024-02-16T14:17:09;14.50;99.90
36594;DHT22;22603;47.900;8.146;2024-02-16T14:19:56;14.20;99.90
36594;DHT22;22603;47.900;8.146;2024-02-16T14:22:43;14.20;99.90
36594;DHT22;22603;47.900;8.146;2024-02-16T14:25:31;14.30;99.90
36594;DHT22;22603;47.900;8.146;2024-02-16T14:28:18;14.40;99.90
36594;DHT22;22603;47.900;8.146;2024-02-16T14:31:05;14.40;99.90
36594;DHT22;22603;47.900;8.146;2024-02-16T14:33:52;14.50;99.90
36594;DHT22;22603;47.900;8.146;2024-02-16T14:36:39;14.70;99.90
36594;DHT22;22603;47.900;8.146;2024-02-16T14:39:26;14.70;99.90
36594;DHT22;22603;47.900;8.146;2024-02-16T14:42:14;14.60;99.90
36594;DHT22;22603;47.900;8.146;2024-02-16T14:45:01;14.60;99.90
36594;DHT22;22603;47.900;8.146;2024-02-16T14:47:48;14.40;99.90
36594;DHT22;22603;47.900;8.146;2024-02-16T14:50:35;14.20;99.90
36594;DHT22;22603;47.900;8.146;2024-02-16T14:53:22;14.20;99.90
36594;DHT22;22603;47.900;8.146;2024-02-16T14:56:09;14.20;99.90
36594;DHT22;22603;47.900;8.146;2024-02-16T14:58:57;14.20;99.90
36594;DHT22;22603;47.900;8.146;2024-02-16T15:01:43;14.20;99.90
36594;DHT22;22603;47.900;8.146;2024-02-16T15:04:31;14.10;99.90
36594;DHT22;22603;47.900;8.146;2024-02-16T15:07:18;14.20;99.90
36594;DHT22;22603;47.900;8.146;2024-02-16T15:10:05;14.20;99.90
36594;DHT22;22603;47.900;8.146;2024-02-16T15:12:53;14.20;99.90
36594;DHT22;22603;47.900;8.146;2024-02-16T15:15:41;13.90;99.90
36594;DHT22;22603;47.900;8.146;2024-02-16T15:18:28;13.80;99.90
36594;DHT22;22603;47.900;8.146;2024-02-16T15:21:15;13.80;99.90
36594;DHT22;22603;47.900;8.146;2024-02-16T15:24:03;13.80;99.90
36594;DHT22;22603;47.900;8.146;2024-02-16T15:26:50;13.70;99.90
36594;DHT22;22603;47.900;8.146;2024-02-16T15:29:39;13.60;99.90
36594;DHT22;22603;47.900;8.146;2024-02-16T15:32:27;13.50;99.90
36594;DHT22;22603;47.900;8.146;2024-02-16T15:35:15;13.60;99.90
36594;DHT22;22603;47.900;8.146;2024-02-16T15:38:03;13.50;99.90
36594;DHT22;22603;47.900;8.146;2024-02-16T15:40:49;13.40;99.90
36594;DHT22;22603;47.900;8.146;2024-02-16T15:43:36;13.30;99.90
36594;DHT22;22603;47.900;8.146;2024-02-16T15:46:23;13.20;99.90
36594;DHT22;22603;47.900;8.146;2024-02-16T15:49:11;13.10;99.90
36594;DHT22;22603;47.900;8.146;2024-02-16T15:51:58;13.00;99.90
36594;DHT22;22603;47.900;8.146;2024-02-16T15:54:45;13.00;99.90
36594;DHT22;22603;47.900;8.146;2024-02-16T15:57:32;12.90;99.90
36594;DHT22;22603;47.900;8.146;2024-02-16T16:00:20;12.80;99.90
36594;DHT22;22603;47.900;8.146;2024-02-16T16:03:06;12.60;99.90
36594;DHT22;22603;47.900;8.146;2024-02-16T16:05:56;12.50;99.90
36594;DHT22;22603;47.900;8.146;2024-02-16T16:08:44;12.50;99.90
36594;DHT22;22603;47.900;8.146;2024-02-16T16:11:30;12.30;99.90
36594;DHT22;22603;47.900;8.146;2024-02-16T16:14:17;12.20;99.90
36594;DHT22;22603;47.900;8.146;2024-02-16T16:17:04;12.20;99.90
36594;DHT22;22603;47.900;8.146;2024-02-16T16:19:51;12.10;99.90
36594;DHT22;22603;47.900;8.146;2024-02-16T16:22:39;12.20;99.90
36594;DHT22;22603;47.900;8.146;2024-02-16T16:25:26;12.20;99.90
36594;DHT22;22603;47.900;8.146;2024-02-16T16:28:12;12.00;99.90
36594;DHT22;22603;47.900;8.146;2024-02-16T16:30:59;11.90;99.90
36594;DHT22;22603;47.900;8.146;2024-02-16T16:33:46;11.70;99.90
36594;DHT22;22603;47.900;8.146;2024-02-16T16:36:33;11.70;99.90
36594;DHT22;22603;47.900;8.146;2024-02-16T16:39:21;11.70;99.90
36594;DHT22;22603;47.900;8.146;2024-02-16T16:42:10;11.60;99.90
36594;DHT22;22603;47.900;8.146;2024-02-16T16:44:56;11.50;99.90
36594;DHT22;22603;47.900;8.146;2024-02-16T16:47:43;11.50;99.90
36594;DHT22;22603;47.900;8.146;2024-02-16T16:50:30;11.40;99.90
36594;DHT22;22603;47.900;8.146;2024-02-16T16:53:17;11.30;99.90
36594;DHT22;22603;47.900;8.146;2024-02-16T16:56:07;11.30;99.90
36594;DHT22;22603;47.900;8.146;2024-02-16T16:58:54;11.20;99.90
36594;DHT22;22603;47.900;8.146;2024-02-16T17:01:41;11.00;99.90
36594;DHT22;22603;47.900;8.146;2024-02-16T17:04:29;10.90;99.90
36594;DHT22;22603;47.900;8.146;2024-02-16T17:07:16;10.90;99.90
36594;DHT22;22603;47.900;8.146;2024-02-16T17:10:05;10.80;99.90
36594;DHT22;22603;47.900;8.146;2024-02-16T17:12:54;10.80;99.90
36594;DHT22;22603;47.900;8.146;2024-02-16T17:15:41;10.70;99.90
36594;DHT22;22603;47.900;8.146;2024-02-16T17:18:28;10.60;99.90
36594;DHT22;22603;47.900;8.146;2024-02-16T17:21:19;10.50;99.90
36594;DHT22;22603;47.900;8.146;2024-02-16T17:24:06;10.40;99.90
36594;DHT22;22603;47.900;8.146;2024-02-16T17:26:53;10.20;99.90
36594;DHT22;22603;47.900;8.146;2024-02-16T17:29:42;10.20;99.90
36594;DHT22;22603;47.900;8.146;2024-02-16T17:32:30;10.10;99.90
36594;DHT22;22603;47.900;8.146;2024-02-16T17:35:18;10.10;99.90
36594;DHT22;22603;47.900;8.146;2024-02-16T17:38:05;10.10;99.90
36594;DHT22;22603;47.900;8.146;2024-02-16T17:40:52;10.10;99.90
36594;DHT22;22603;47.900;8.146;2024-02-16T17:43:38;10.10;99.90
36594;DHT22;22603;47.900;8.146;2024-02-16T17:46:31;10.00;99.90